Time;durP1;ratioP1;P1;durP2;ratioP2;P2;SDS_P1;SDS_P2;PMS_P1;PMS_P2;Temp;Humidity;BMP_temperature;BMP_pressure;BME280_temperature;BME280_humidity;BME280_pressure;Samples;Min_cycle;Max_cycle;Signal;HPM_P1;HPM_P2
2024/01/06 00:00:17;;;;;;;15.32;9.68;;;3.90;99.90;;;;;;4859957;29;20056;-64
2024/01/06 00:02:43;;;;;;;12.52;9.40;;;3.80;99.90;;;;;;4843873;29;20057;-63
2024/01/06 00:05:10;;;;;;;12.40;8.32;;;3.90;99.90;;;;;;4860109;29;20076;-63
2024/01/06 00:07:36;;;;;;;15.32;10.63;;;3.80;99.90;;;;;;4842527;29;20058;-64
2024/01/06 00:10:05;;;;;;;14.93;10.73;;;3.60;99.90;;;;;;4843925;29;20057;-63
2024/01/06 00:12:31;;;;;;;17.42;12.05;;;3.70;99.90;;;;;;4860688;29;20446;-64
2024/01/06 00:14:57;;;;;;;14.50;9.07;;;3.70;99.90;;;;;;4859689;29;20060;-64
2024/01/06 00:17:24;;;;;;;15.00;9.80;;;3.70;99.90;;;;;;4876275;29;20063;-64
2024/01/06 00:19:51;;;;;;;13.18;8.85;;;3.50;99.90;;;;;;4881517;29;20053;-63
2024/01/06 00:22:20;;;;;;;14.50;9.98;;;3.60;99.90;;;;;;4865842;29;20052;-63
2024/01/06 00:24:48;;;;;;;16.35;10.75;;;3.70;99.90;;;;;;4881575;29;20053;-64
2024/01/06 00:27:16;;;;;;;19.52;12.07;;;3.50;99.90;;;;;;4864942;29;20144;-64
2024/01/06 00:29:42;;;;;;;15.70;9.82;;;3.50;99.90;;;;;;4882118;29;20057;-64
2024/01/06 00:32:11;;;;;;;20.77;12.20;;;3.40;99.90;;;;;;4874700;29;20048;-64
2024/01/06 00:34:37;;;;;;;14.70;9.50;;;3.60;99.90;;;;;;4847250;29;20200;-64
2024/01/06 00:37:05;;;;;;;14.77;9.18;;;3.60;99.90;;;;;;4880473;29;20049;-62
2024/01/06 00:39:32;;;;;;;12.00;8.80;;;3.40;99.90;;;;;;4880647;29;20053;-64
2024/01/06 00:42:01;;;;;;;13.13;9.10;;;3.50;99.90;;;;;;4881993;29;20045;-65
2024/01/06 00:44:27;;;;;;;15.85;11.02;;;3.60;99.90;;;;;;4881090;29;20056;-63
2024/01/06 00:46:53;;;;;;;16.83;10.38;;;3.30;99.90;;;;;;4880749;29;20053;-64
2024/01/06 00:49:20;;;;;;;19.98;10.73;;;3.30;99.90;;;;;;4880180;29;20088;-63
2024/01/06 00:51:46;;;;;;;17.67;10.45;;;3.40;99.90;;;;;;4880037;29;20393;-64
2024/01/06 00:54:12;;;;;;;14.95;9.68;;;3.40;99.90;;;;;;4880874;29;20080;-63
2024/01/06 00:56:39;;;;;;;12.68;8.50;;;3.30;99.90;;;;;;4874381;29;20057;-64
2024/01/06 00:59:06;;;;;;;14.07;9.85;;;3.20;99.90;;;;;;4861667;29;20493;-63
2024/01/06 01:01:33;;;;;;;15.05;9.63;;;3.20;99.90;;;;;;4861759;29;20053;-63
2024/01/06 01:03:59;;;;;;;17.92;11.30;;;3.40;99.90;;;;;;4862071;29;20053;-63
2024/01/06 01:06:25;;;;;;;28.77;13.35;;;3.30;99.90;;;;;;4863128;29;20064;-63
2024/01/06 01:08:51;;;;;;;14.27;8.82;;;3.10;99.90;;;;;;4861978;29;20061;-62
2024/01/06 01:11:18;;;;;;;14.52;9.15;;;3.30;99.90;;;;;;4861882;29;20063;-63
2024/01/06 01:13:45;;;;;;;22.27;12.38;;;3.20;99.90;;;;;;4846512;29;20061;-63
2024/01/06 01:16:11;;;;;;;18.90;11.45;;;3.20;99.90;;;;;;4866967;29;20415;-63
2024/01/06 01:18:37;;;;;;;16.48;11.32;;;3.00;99.90;;;;;;4881304;29;20049;-62
2024/01/06 01:21:05;;;;;;;15.50;10.25;;;3.00;99.90;;;;;;4864773;29;20057;-63
2024/01/06 01:23:32;;;;;;;15.10;9.93;;;3.10;99.90;;;;;;4880420;29;20061;-63
2024/01/06 01:25:59;;;;;;;20.40;12.38;;;3.20;99.90;;;;;;4880187;29;20053;-62
2024/01/06 01:28:25;;;;;;;16.38;10.88;;;3.00;99.90;;;;;;4863882;29;20060;-63
2024/01/06 01:30:51;;;;;;;15.07;9.60;;;3.10;99.90;;;;;;4881984;29;20068;-63
2024/01/06 01:33:18;;;;;;;14.20;9.50;;;2.90;99.90;;;;;;4881159;29;20072;-64
2024/01/06 01:35:44;;;;;;;16.60;10.25;;;3.00;99.90;;;;;;4877910;29;20474;-62
2024/01/06 01:38:10;;;;;;;16.08;10.07;;;2.90;99.90;;;;;;4877334;29;20403;-64
2024/01/06 01:40:37;;;;;;;16.88;10.20;;;3.00;99.90;;;;;;4861917;29;20053;-63
2024/01/06 01:43:03;;;;;;;17.67;10.40;;;2.90;99.90;;;;;;4863146;29;20135;-63
2024/01/06 01:45:29;;;;;;;15.55;9.52;;;3.20;99.90;;;;;;4862101;29;20049;-63
2024/01/06 01:47:56;;;;;;;15.15;9.85;;;3.20;99.90;;;;;;4861832;29;20068;-63
2024/01/06 01:50:23;;;;;;;18.02;10.90;;;2.90;99.90;;;;;;4862107;29;20084;-63
2024/01/06 01:52:49;;;;;;;16.20;10.65;;;3.20;99.90;;;;;;4862742;29;20060;-63
2024/01/06 01:55:16;;;;;;;17.83;11.02;;;3.10;99.90;;;;;;4861742;29;20054;-63
2024/01/06 01:57:42;;;;;;;17.00;11.00;;;3.10;99.90;;;;;;4864096;29;20057;-63
2024/01/06 02:00:09;;;;;;;16.65;10.68;;;3.00;99.90;;;;;;4861178;29;20091;-63
2024/01/06 02:02:35;;;;;;;17.25;10.95;;;3.30;99.90;;;;;;4861429;29;20124;-63
2024/01/06 02:05:02;;;;;;;18.67;11.98;;;3.20;99.90;;;;;;4861779;29;20528;-63
2024/01/06 02:07:28;;;;;;;17.42;10.77;;;3.00;99.90;;;;;;4861605;29;20072;-62
2024/01/06 02:09:55;;;;;;;16.63;10.80;;;2.90;99.90;;;;;;4861607;29;20058;-63
2024/01/06 02:12:21;;;;;;;18.90;11.55;;;3.00;99.90;;;;;;4861658;29;20053;-63
2024/01/06 02:14:47;;;;;;;18.13;11.93;;;3.00;99.90;;;;;;4846385;29;20049;-63
2024/01/06 02:17:13;;;;;;;17.70;12.00;;;2.90;99.90;;;;;;4859204;29;20057;-62
2024/01/06 02:19:40;;;;;;;15.18;10.85;;;3.10;99.90;;;;;;4880298;29;20061;-64
2024/01/06 02:22:06;;;;;;;16.63;10.43;;;3.10;99.90;;;;;;4879474;29;20052;-63
2024/01/06 02:24:32;;;;;;;16.00;10.27;;;3.00;99.90;;;;;;4879510;29;20049;-62
2024/01/06 02:26:59;;;;;;;16.70;11.50;;;2.90;99.90;;;;;;4861082;29;20389;-63
2024/01/06 02:29:25;;;;;;;16.75;10.20;;;3.00;99.90;;;;;;4861120;29;20057;-62
2024/01/06 02:31:51;;;;;;;16.85;9.77;;;3.00;99.90;;;;;;4876521;29;20049;-62
2024/01/06 02:34:17;;;;;;;17.55;11.15;;;2.80;99.90;;;;;;4860941;29;20057;-62
2024/01/06 02:36:46;;;;;;;17.38;10.85;;;2.80;99.90;;;;;;4878933;29;20056;-64
2024/01/06 02:39:13;;;;;;;17.02;10.20;;;2.80;99.90;;;;;;4879334;29;20053;-63
2024/01/06 02:41:39;;;;;;;17.73;10.60;;;3.00;99.90;;;;;;4878836;29;20059;-62
2024/01/06 02:44:05;;;;;;;17.50;10.40;;;2.90;99.90;;;;;;4879545;29;20211;-62
2024/01/06 02:46:32;;;;;;;17.00;11.00;;;3.00;99.90;;;;;;4876325;29;20049;-63
2024/01/06 02:48:58;;;;;;;19.25;11.48;;;2.90;99.90;;;;;;4860719;29;20056;-62
2024/01/06 02:51:24;;;;;;;16.95;10.88;;;2.90;99.90;;;;;;4875714;29;20061;-63
2024/01/06 02:53:50;;;;;;;17.40;11.15;;;2.80;99.90;;;;;;4860679;29;20057;-62
2024/01/06 02:56:17;;;;;;;16.75;10.73;;;2.80;99.90;;;;;;4875985;29;20049;-63
2024/01/06 02:58:43;;;;;;;15.73;10.45;;;2.80;99.90;;;;;;4860259;29;20057;-62
2024/01/06 03:01:11;;;;;;;17.48;10.98;;;2.90;99.90;;;;;;4860533;29;20049;-62
2024/01/06 03:03:37;;;;;;;14.77;10.07;;;2.90;99.90;;;;;;4860416;29;20049;-64
2024/01/06 03:06:04;;;;;;;15.77;9.73;;;2.90;99.90;;;;;;4860292;29;20109;-62
2024/01/06 03:08:31;;;;;;;14.98;10.65;;;2.90;99.90;;;;;;4844825;29;20077;-62
2024/01/06 03:10:57;;;;;;;17.85;10.68;;;2.90;99.90;;;;;;4845298;29;20061;-62
2024/01/06 03:13:24;;;;;;;14.70;10.18;;;2.90;99.90;;;;;;4845188;29;20058;-62
2024/01/06 03:15:50;;;;;;;15.30;9.68;;;3.00;99.90;;;;;;4878929;29;20056;-62
2024/01/06 03:18:16;;;;;;;14.73;9.50;;;2.80;99.90;;;;;;4879060;29;20064;-62
2024/01/06 03:20:42;;;;;;;15.82;10.25;;;2.80;99.90;;;;;;4879295;29;20049;-62
2024/01/06 03:23:09;;;;;;;14.32;10.38;;;3.00;99.90;;;;;;4878630;29;20053;-62
2024/01/06 03:25:35;;;;;;;14.75;9.85;;;2.90;99.90;;;;;;4863122;29;20132;-63
2024/01/06 03:28:01;;;;;;;15.05;9.98;;;2.80;99.90;;;;;;4879075;29;20057;-62
2024/01/06 03:30:28;;;;;;;14.07;9.55;;;2.80;99.90;;;;;;4878474;29;20053;-62
2024/01/06 03:32:54;;;;;;;14.93;10.23;;;2.90;99.90;;;;;;4878668;29;20065;-62
2024/01/06 03:35:20;;;;;;;15.95;10.23;;;2.90;99.90;;;;;;4878484;29;20053;-62
2024/01/06 03:37:47;;;;;;;14.15;9.20;;;2.90;99.90;;;;;;4878542;29;20059;-62
2024/01/06 03:40:13;;;;;;;14.85;10.68;;;2.90;99.90;;;;;;4878272;29;20053;-63
2024/01/06 03:42:40;;;;;;;15.60;10.85;;;2.70;99.90;;;;;;4878790;29;20480;-63
2024/01/06 03:45:06;;;;;;;16.73;11.00;;;2.70;99.90;;;;;;4869854;29;20054;-62
2024/01/06 03:47:33;;;;;;;15.88;11.10;;;2.80;99.90;;;;;;4875205;29;20060;-62
2024/01/06 03:49:59;;;;;;;17.23;10.75;;;2.60;99.90;;;;;;4878886;29;20057;-62
2024/01/06 03:52:25;;;;;;;14.82;9.32;;;2.60;99.90;;;;;;4880503;29;20056;-62
2024/01/06 03:54:51;;;;;;;14.05;10.00;;;2.60;99.90;;;;;;4882565;29;20049;-62
2024/01/06 03:57:18;;;;;;;15.88;10.27;;;2.70;99.90;;;;;;4869693;29;20124;-62
2024/01/06 03:59:44;;;;;;;15.30;9.82;;;2.80;99.90;;;;;;4871199;29;20053;-63
2024/01/06 04:02:11;;;;;;;12.93;8.52;;;2.70;99.90;;;;;;4863317;29;20053;-62
2024/01/06 04:04:37;;;;;;;15.95;9.45;;;2.60;99.90;;;;;;4863795;29;20458;-62
2024/01/06 04:07:03;;;;;;;17.42;10.50;;;2.60;99.90;;;;;;4874854;29;20053;-62
2024/01/06 04:09:30;;;;;;;15.35;10.07;;;2.60;99.90;;;;;;4866896;29;20494;-63
2024/01/06 04:11:56;;;;;;;14.82;9.82;;;2.60;99.90;;;;;;4882051;29;20068;-63
2024/01/06 04:14:22;;;;;;;15.00;10.38;;;2.60;99.90;;;;;;4882271;29;20057;-62
2024/01/06 04:16:49;;;;;;;16.63;9.40;;;2.60;99.90;;;;;;4881245;29;20385;-62
2024/01/06 04:19:15;;;;;;;15.43;10.02;;;2.70;99.90;;;;;;4881909;29;20057;-64
2024/01/06 04:21:41;;;;;;;15.55;10.27;;;2.50;99.90;;;;;;4881583;29;20381;-62
2024/01/06 04:24:08;;;;;;;13.82;9.40;;;2.50;99.90;;;;;;4882086;29;20049;-62
2024/01/06 04:26:34;;;;;;;15.40;10.13;;;2.50;99.90;;;;;;4881779;29;20066;-62
2024/01/06 04:29:01;;;;;;;13.55;10.02;;;2.60;99.90;;;;;;4881506;29;20048;-63
2024/01/06 04:31:27;;;;;;;15.05;9.93;;;2.60;99.90;;;;;;4882006;29;20408;-62
2024/01/06 04:33:53;;;;;;;15.05;9.20;;;2.40;99.90;;;;;;4866308;29;20067;-63
2024/01/06 04:36:19;;;;;;;13.55;9.52;;;2.50;99.90;;;;;;4866206;29;20408;-62
2024/01/06 04:38:46;;;;;;;14.50;9.38;;;2.40;99.90;;;;;;4881449;29;20057;-62
2024/01/06 04:41:12;;;;;;;15.20;9.82;;;2.60;99.90;;;;;;4881428;29;20053;-62
2024/01/06 04:43:38;;;;;;;14.30;9.32;;;2.50;99.90;;;;;;4882112;29;20064;-62
2024/01/06 04:46:04;;;;;;;16.02;10.30;;;2.50;99.90;;;;;;4874458;29;20049;-62
2024/01/06 04:48:31;;;;;;;13.63;8.63;;;2.40;99.90;;;;;;4881714;29;20060;-63
2024/01/06 04:50:57;;;;;;;14.73;9.75;;;2.50;99.90;;;;;;4866270;29;20057;-62
2024/01/06 04:53:23;;;;;;;15.95;9.75;;;2.60;99.90;;;;;;4881678;29;20056;-62
2024/01/06 04:55:50;;;;;;;14.15;9.95;;;2.50;99.90;;;;;;4880548;29;20053;-62
2024/01/06 04:58:16;;;;;;;14.63;9.65;;;2.60;99.90;;;;;;4862816;29;20064;-62
2024/01/06 05:00:42;;;;;;;15.90;10.57;;;2.60;99.90;;;;;;4877913;29;20086;-62
2024/01/06 05:03:09;;;;;;;14.02;9.70;;;2.50;99.90;;;;;;4877790;29;20053;-62
2024/01/06 05:05:35;;;;;;;16.88;10.40;;;2.40;99.90;;;;;;4862695;29;20057;-63
2024/01/06 05:08:01;;;;;;;17.60;10.13;;;2.50;99.90;;;;;;4878138;29;20054;-62
2024/01/06 05:10:28;;;;;;;16.13;10.68;;;2.60;99.90;;;;;;4862783;29;20140;-63
2024/01/06 05:12:54;;;;;;;16.15;10.02;;;2.60;99.90;;;;;;4862683;29;20462;-62
2024/01/06 05:15:20;;;;;;;16.35;10.50;;;2.40;99.90;;;;;;4862449;29;20053;-62
2024/01/06 05:17:47;;;;;;;17.98;10.00;;;2.40;99.90;;;;;;4877979;29;20045;-62
2024/01/06 05:20:13;;;;;;;16.80;10.73;;;2.40;99.90;;;;;;4862444;29;20056;-62
2024/01/06 05:22:39;;;;;;;16.52;10.32;;;2.50;99.90;;;;;;4877704;29;20209;-63
2024/01/06 05:25:06;;;;;;;15.60;10.65;;;2.50;99.90;;;;;;4862724;29;20060;-62
2024/01/06 05:27:32;;;;;;;17.48;10.55;;;2.50;99.90;;;;;;4876842;29;20053;-62
2024/01/06 05:29:58;;;;;;;15.63;9.85;;;2.40;99.90;;;;;;4881005;29;20382;-62
2024/01/06 05:32:25;;;;;;;18.35;9.85;;;2.30;99.90;;;;;;4880682;29;20059;-63
2024/01/06 05:34:51;;;;;;;15.65;10.13;;;2.30;99.90;;;;;;4865621;29;20063;-62
2024/01/06 05:37:18;;;;;;;15.65;9.80;;;2.20;99.90;;;;;;4880395;29;20049;-62
2024/01/06 05:39:44;;;;;;;17.00;10.48;;;2.40;99.90;;;;;;4865675;29;20140;-63
2024/01/06 05:42:16;;;;;;;15.82;9.90;;;2.20;99.90;;;;;;4880827;29;20063;-62
2024/01/06 05:44:43;;;;;;;13.75;9.38;;;2.40;99.90;;;;;;4865431;29;20064;-62
2024/01/06 05:47:09;;;;;;;14.52;8.90;;;2.20;99.90;;;;;;4880510;29;20076;-63
2024/01/06 05:49:35;;;;;;;16.58;9.68;;;2.20;99.90;;;;;;4880392;29;20055;-62
2024/01/06 05:52:02;;;;;;;15.20;9.02;;;2.30;99.90;;;;;;4880731;29;20057;-63
2024/01/06 05:54:28;;;;;;;15.82;9.60;;;2.20;99.90;;;;;;4880636;29;20063;-63
2024/01/06 05:56:55;;;;;;;16.38;10.68;;;2.30;99.90;;;;;;4880347;29;20068;-62
2024/01/06 05:59:22;;;;;;;17.23;10.20;;;2.10;99.90;;;;;;4880273;29;20065;-62
2024/01/06 06:01:48;;;;;;;16.33;9.02;;;2.10;99.90;;;;;;4880352;29;20055;-63
2024/01/06 06:04:14;;;;;;;14.85;9.52;;;1.90;99.90;;;;;;4880450;29;20064;-63
2024/01/06 06:06:40;;;;;;;15.70;9.35;;;1.90;99.90;;;;;;4871893;29;20772;-62
2024/01/06 06:09:08;;;;;;;14.63;9.35;;;2.00;99.90;;;;;;4846226;29;20057;-62
2024/01/06 06:11:34;;;;;;;15.88;9.40;;;1.90;99.90;;;;;;4861556;29;20065;-63
2024/01/06 06:14:02;;;;;;;15.07;9.43;;;2.00;99.90;;;;;;4845986;29;20057;-62
2024/01/06 06:16:29;;;;;;;14.63;9.57;;;2.10;99.90;;;;;;4860961;29;20068;-63
2024/01/06 06:18:56;;;;;;;14.10;9.27;;;2.20;99.90;;;;;;4861187;29;20389;-62
2024/01/06 06:21:22;;;;;;;14.88;10.10;;;2.10;99.90;;;;;;4876572;29;20065;-62
2024/01/06 06:23:48;;;;;;;15.90;9.30;;;2.10;99.90;;;;;;4861345;29;20055;-62
2024/01/06 06:26:15;;;;;;;16.02;9.73;;;2.10;99.90;;;;;;4861110;29;20053;-62
2024/01/06 06:28:41;;;;;;;16.33;9.57;;;2.00;99.90;;;;;;4860981;29;20053;-62
2024/01/06 06:31:08;;;;;;;17.35;10.40;;;2.20;99.90;;;;;;4876684;29;20053;-63
2024/01/06 06:33:34;;;;;;;14.95;9.75;;;2.10;99.90;;;;;;4861106;29;20057;-62
2024/01/06 06:36:01;;;;;;;18.88;11.23;;;2.00;99.90;;;;;;4879401;29;20061;-63
2024/01/06 06:38:27;;;;;;;15.48;10.18;;;2.10;99.90;;;;;;4880095;29;20071;-62
2024/01/06 06:40:54;;;;;;;18.98;11.27;;;2.20;99.90;;;;;;4879692;29;20079;-62
2024/01/06 06:43:20;;;;;;;17.58;11.90;;;2.20;99.90;;;;;;4879925;29;20052;-62
2024/01/06 06:45:46;;;;;;;18.52;10.93;;;2.10;99.90;;;;;;4879430;29;20053;-62
2024/01/06 06:48:13;;;;;;;17.83;10.23;;;2.10;99.90;;;;;;4879614;29;20052;-63
2024/01/06 06:50:41;;;;;;;18.17;10.55;;;2.00;99.90;;;;;;4876527;29;20072;-63
2024/01/06 06:53:08;;;;;;;18.98;11.05;;;2.00;99.90;;;;;;4861071;29;20050;-63
2024/01/06 06:55:34;;;;;;;16.90;11.63;;;2.10;99.90;;;;;;4860781;29;20054;-62
2024/01/06 06:58:01;;;;;;;17.23;11.38;;;2.10;99.90;;;;;;4860722;29;20053;-63
2024/01/06 07:00:27;;;;;;;18.92;11.40;;;2.10;99.90;;;;;;4876320;29;20064;-63
2024/01/06 07:02:53;;;;;;;19.52;11.60;;;2.00;99.90;;;;;;4876200;29;20392;-62
2024/01/06 07:05:20;;;;;;;16.58;10.63;;;2.20;99.90;;;;;;4860853;29;20442;-63
2024/01/06 07:07:46;;;;;;;16.40;10.38;;;2.00;99.90;;;;;;4860869;29;20045;-63
2024/01/06 07:10:13;;;;;;;17.20;10.50;;;2.20;99.90;;;;;;4860297;29;20045;-62
2024/01/06 07:12:39;;;;;;;16.88;10.70;;;2.20;99.90;;;;;;4875884;29;20069;-62
2024/01/06 07:15:06;;;;;;;17.27;9.40;;;2.20;99.90;;;;;;4860301;29;20057;-62
2024/01/06 07:17:32;;;;;;;16.55;10.63;;;2.00;99.90;;;;;;4876186;29;20057;-62
2024/01/06 07:19:58;;;;;;;17.90;10.77;;;2.00;99.90;;;;;;4861053;29;20061;-62
2024/01/06 07:22:25;;;;;;;17.48;10.55;;;2.10;99.90;;;;;;4875872;29;20136;-63
2024/01/06 07:24:51;;;;;;;18.42;11.00;;;2.00;99.90;;;;;;4861014;29;20056;-62
2024/01/06 07:27:17;;;;;;;18.70;11.80;;;2.10;99.90;;;;;;4849622;29;20485;-62
2024/01/06 07:29:44;;;;;;;17.40;12.25;;;2.10;99.90;;;;;;4860849;29;20046;-63
2024/01/06 07:32:10;;;;;;;16.63;10.32;;;2.10;99.90;;;;;;4860215;29;20067;-63
2024/01/06 07:34:36;;;;;;;16.00;10.07;;;2.00;99.90;;;;;;4860639;29;20135;-63
2024/01/06 07:37:03;;;;;;;20.27;12.00;;;2.00;99.90;;;;;;4859970;29;20074;-62
2024/01/06 07:39:29;;;;;;;15.70;9.93;;;2.20;99.90;;;;;;4860126;29;20056;-62
2024/01/06 07:41:55;;;;;;;16.50;11.77;;;2.10;99.90;;;;;;4860308;29;20478;-63
2024/01/06 07:44:24;;;;;;;14.23;9.52;;;2.00;99.90;;;;;;4860660;29;20064;-62
2024/01/06 07:46:51;;;;;;;15.75;9.73;;;2.00;99.90;;;;;;4859964;29;20054;-62
2024/01/06 07:49:17;;;;;;;17.70;10.52;;;2.10;99.90;;;;;;4860114;29;20328;-62
2024/01/06 07:51:44;;;;;;;15.02;9.93;;;2.20;99.90;;;;;;4858911;29;20056;-62
2024/01/06 07:54:11;;;;;;;17.33;10.00;;;2.00;99.90;;;;;;4859811;29;20115;-62
2024/01/06 07:56:38;;;;;;;16.15;9.50;;;2.10;99.90;;;;;;4859505;29;20680;-62
2024/01/06 07:59:05;;;;;;;14.38;9.48;;;2.00;99.90;;;;;;4860169;29;20486;-63
2024/01/06 08:01:31;;;;;;;16.52;10.32;;;2.20;99.90;;;;;;4860022;29;20057;-62
2024/01/06 08:03:58;;;;;;;16.13;10.02;;;2.00;99.90;;;;;;4859882;29;20082;-62
2024/01/06 08:06:26;;;;;;;15.20;9.48;;;2.00;99.90;;;;;;4860107;29;20061;-63
2024/01/06 08:08:52;;;;;;;14.73;10.10;;;2.00;99.90;;;;;;4845223;29;20061;-63
2024/01/06 08:11:18;;;;;;;16.55;9.85;;;1.90;99.90;;;;;;4859862;29;20049;-63
2024/01/06 08:13:44;;;;;;;15.75;9.95;;;2.10;99.90;;;;;;4859658;29;20064;-63
2024/01/06 08:16:11;;;;;;;14.15;8.45;;;2.10;99.90;;;;;;4844323;29;20045;-62
2024/01/06 08:18:37;;;;;;;14.13;9.38;;;2.10;99.90;;;;;;4859750;29;20057;-63
2024/01/06 08:21:04;;;;;;;13.23;9.95;;;2.00;99.90;;;;;;4859946;29;20539;-62
2024/01/06 08:23:30;;;;;;;13.88;8.80;;;2.10;99.90;;;;;;4844702;29;20057;-63
2024/01/06 08:25:57;;;;;;;13.25;9.15;;;2.00;99.90;;;;;;4860269;29;20061;-62
2024/01/06 08:28:23;;;;;;;14.77;8.98;;;2.00;99.90;;;;;;4840057;29;20494;-62
2024/01/06 08:30:50;;;;;;;13.75;10.00;;;2.10;99.90;;;;;;4858882;29;20045;-63
2024/01/06 08:33:17;;;;;;;14.02;9.38;;;1.90;99.90;;;;;;4859489;29;20057;-63
2024/01/06 08:35:44;;;;;;;12.43;9.27;;;2.00;99.90;;;;;;4859657;29;20381;-62
2024/01/06 08:38:10;;;;;;;15.38;9.98;;;2.10;99.90;;;;;;4845635;29;20053;-64
2024/01/06 08:40:37;;;;;;;13.93;9.27;;;2.10;99.90;;;;;;4862853;29;20105;-64
2024/01/06 08:43:03;;;;;;;13.50;9.40;;;1.90;99.90;;;;;;4863036;29;20053;-63
2024/01/06 08:45:30;;;;;;;15.45;10.85;;;2.00;99.90;;;;;;4844398;29;20068;-63
2024/01/06 08:47:56;;;;;;;13.15;9.63;;;2.00;99.90;;;;;;4844466;29;20046;-62
2024/01/06 08:50:23;;;;;;;13.85;9.85;;;2.00;99.90;;;;;;4844670;29;20050;-63
2024/01/06 08:52:49;;;;;;;13.32;9.48;;;2.10;99.90;;;;;;4844498;29;20054;-62
2024/01/06 08:55:16;;;;;;;14.05;9.77;;;2.00;99.90;;;;;;4844569;29;20065;-62
2024/01/06 08:57:42;;;;;;;15.10;9.75;;;2.00;99.90;;;;;;4856175;29;20080;-62
2024/01/06 09:00:10;;;;;;;14.75;9.55;;;2.10;99.90;;;;;;4867781;29;20054;-61
2024/01/06 09:02:36;;;;;;;15.70;9.57;;;2.00;99.90;;;;;;4846238;29;20054;-62
2024/01/06 09:05:04;;;;;;;12.52;8.57;;;2.20;99.90;;;;;;4862048;29;20053;-63
2024/01/06 09:07:30;;;;;;;12.32;8.77;;;2.20;99.90;;;;;;4874558;29;20052;-63
2024/01/06 09:09:56;;;;;;;12.57;8.80;;;2.20;99.90;;;;;;4880633;29;20089;-62
2024/01/06 09:12:22;;;;;;;12.77;9.43;;;2.20;99.90;;;;;;4880521;29;20053;-62
2024/01/06 09:14:49;;;;;;;15.25;9.43;;;2.20;99.90;;;;;;4881007;29;20069;-64
2024/01/06 09:17:16;;;;;;;13.73;10.63;;;2.30;99.90;;;;;;4865084;29;20063;-63
2024/01/06 09:19:42;;;;;;;14.98;10.52;;;2.30;99.90;;;;;;4863479;29;20182;-62
2024/01/06 09:22:08;;;;;;;13.57;9.75;;;2.30;99.90;;;;;;4862028;29;20049;-63
2024/01/06 09:24:34;;;;;;;16.35;10.27;;;2.30;99.90;;;;;;4862223;29;20057;-63
2024/01/06 09:27:01;;;;;;;14.18;9.82;;;2.30;99.90;;;;;;4862399;29;20064;-62
2024/01/06 09:29:27;;;;;;;15.88;10.65;;;2.20;99.90;;;;;;4862729;29;20054;-64
2024/01/06 09:31:53;;;;;;;12.98;10.00;;;2.20;99.90;;;;;;4861939;29;20072;-63
2024/01/06 09:34:20;;;;;;;14.57;9.95;;;2.30;99.90;;;;;;4861697;29;20061;-64
2024/01/06 09:36:46;;;;;;;16.40;10.80;;;2.30;99.90;;;;;;4861843;29;20053;-63
2024/01/06 09:39:13;;;;;;;15.82;11.07;;;2.30;99.90;;;;;;4861907;29;20068;-63
2024/01/06 09:41:39;;;;;;;17.00;11.73;;;2.30;99.90;;;;;;4877039;29;20057;-63
2024/01/06 09:44:06;;;;;;;15.88;10.65;;;2.30;99.90;;;;;;4861691;29;20057;-62
2024/01/06 09:46:32;;;;;;;18.30;10.98;;;2.30;99.90;;;;;;4876576;29;20057;-62
2024/01/06 09:48:58;;;;;;;16.65;11.02;;;2.30;99.90;;;;;;4860794;29;20063;-62
2024/01/06 09:51:28;;;;;;;17.17;11.10;;;2.40;99.90;;;;;;4876763;29;20053;-63
2024/01/06 09:54:06;;;;;;;15.57;11.13;;;2.40;99.90;;;;;;4846786;29;20046;-63
2024/01/06 09:56:34;;;;;;;17.88;10.75;;;2.30;99.90;;;;;;4866117;29;20069;-63
2024/01/06 09:59:01;;;;;;;18.65;11.88;;;2.30;99.90;;;;;;4879937;29;20049;-65
2024/01/06 10:01:27;;;;;;;15.98;11.73;;;2.30;99.90;;;;;;4880189;29;20081;-62
2024/01/06 10:03:54;;;;;;;18.17;11.82;;;2.30;99.90;;;;;;4879620;29;20055;-63
2024/01/06 10:06:20;;;;;;;17.00;11.35;;;2.40;99.90;;;;;;4879013;29;20056;-63
2024/01/06 10:08:51;;;;;;;17.98;12.23;;;2.40;99.90;;;;;;4879309;29;20442;-64
2024/01/06 10:11:20;;;;;;;18.17;10.98;;;2.50;99.90;;;;;;4863974;29;20049;-62
2024/01/06 10:13:49;;;;;;;18.48;12.05;;;2.50;99.90;;;;;;4880111;29;20057;-64
2024/01/06 10:16:16;;;;;;;18.40;12.13;;;2.40;99.90;;;;;;4875779;29;20052;-62
2024/01/06 10:18:44;;;;;;;18.83;11.88;;;2.50;99.90;;;;;;4860229;29;20443;-63
2024/01/06 10:21:10;;;;;;;17.52;12.45;;;2.40;99.90;;;;;;4844820;29;20060;-63
2024/01/06 10:23:37;;;;;;;18.42;11.95;;;2.40;99.90;;;;;;4860106;29;20056;-63
2024/01/06 10:26:03;;;;;;;19.20;12.02;;;2.40;99.90;;;;;;4859990;29;20061;-63
2024/01/06 10:28:30;;;;;;;20.05;12.40;;;2.50;99.90;;;;;;4859769;29;20417;-63
2024/01/06 10:30:57;;;;;;;18.17;12.00;;;2.60;99.90;;;;;;4859278;29;20386;-63
2024/01/06 10:33:25;;;;;;;19.13;11.93;;;2.50;99.90;;;;;;4859855;29;20049;-63
2024/01/06 10:35:55;;;;;;;18.35;12.25;;;2.50;99.90;;;;;;4875304;29;20493;-62
2024/01/06 10:38:21;;;;;;;18.38;12.45;;;2.40;99.90;;;;;;4876763;29;20072;-63
2024/01/06 10:40:58;;;;;;;17.58;12.20;;;2.40;99.90;;;;;;4878800;29;20512;-63
2024/01/06 10:43:28;;;;;;;18.10;11.30;;;2.50;99.90;;;;;;4878063;29;20061;-63
2024/01/06 10:45:57;;;;;;;17.50;11.50;;;2.60;99.90;;;;;;4877907;29;20064;-64
2024/01/06 10:48:31;;;;;;;17.35;12.85;;;2.50;99.90;;;;;;4878083;29;20060;-63
2024/01/06 10:50:59;;;;;;;19.17;12.27;;;2.50;99.90;;;;;;4877905;29;20052;-63
2024/01/06 10:53:27;;;;;;;16.20;11.90;;;2.60;99.90;;;;;;4877488;29;20064;-65
2024/01/06 10:55:53;;;;;;;16.98;10.75;;;2.60;99.90;;;;;;4877391;29;20059;-64
2024/01/06 10:58:21;;;;;;;17.10;10.63;;;2.50;99.90;;;;;;4873723;29;20053;-63
2024/01/06 11:00:48;;;;;;;13.00;10.30;;;2.50;99.90;;;;;;4857870;29;20389;-64
2024/01/06 11:03:15;;;;;;;15.07;11.05;;;2.50;99.90;;;;;;4858653;29;20136;-62
2024/01/06 11:05:43;;;;;;;15.43;11.23;;;2.60;99.90;;;;;;4843441;29;20187;-64
2024/01/06 11:08:10;;;;;;;14.77;10.48;;;2.50;99.90;;;;;;4873691;29;20053;-63
2024/01/06 11:10:39;;;;;;;13.25;9.25;;;2.50;99.90;;;;;;4858927;29;20064;-63
2024/01/06 11:13:12;;;;;;;15.93;10.57;;;2.60;99.90;;;;;;4858888;29;20089;-64
2024/01/06 11:15:50;;;;;;;14.75;10.15;;;2.60;99.90;;;;;;4859335;29;20061;-62
2024/01/06 11:18:41;;;;;;;15.90;9.85;;;2.60;99.90;;;;;;4876163;29;20398;-63
2024/01/06 11:21:26;;;;;;;14.55;10.82;;;2.50;99.90;;;;;;4877721;29;20060;-63
2024/01/06 11:24:20;;;;;;;13.75;9.38;;;2.50;99.90;;;;;;4877203;29;20048;-63
2024/01/06 11:26:51;;;;;;;13.48;8.90;;;2.60;99.90;;;;;;4876918;29;20442;-63
2024/01/06 11:29:21;;;;;;;12.73;9.75;;;2.50;99.90;;;;;;4877142;29;20049;-63
2024/01/06 11:32:16;;;;;;;14.55;10.00;;;2.50;99.90;;;;;;4878501;29;20071;-62
2024/01/06 11:34:46;;;;;;;15.95;10.25;;;2.50;99.90;;;;;;4876850;29;20053;-63
2024/01/06 11:37:13;;;;;;;14.75;10.05;;;2.50;99.90;;;;;;4866692;29;20431;-63
2024/01/06 11:39:44;;;;;;;13.98;9.73;;;2.50;99.90;;;;;;4854733;29;20062;-63
2024/01/06 11:42:12;;;;;;;14.05;10.05;;;2.40;99.90;;;;;;4858735;29;20045;-64
2024/01/06 11:44:39;;;;;;;13.40;9.77;;;2.50;99.90;;;;;;4872586;29;20593;-64
2024/01/06 11:47:06;;;;;;;14.02;9.82;;;2.50;99.90;;;;;;4841878;29;20231;-64
2024/01/06 11:49:33;;;;;;;13.52;10.13;;;2.50;99.90;;;;;;4857100;29;20398;-63
2024/01/06 11:52:01;;;;;;;15.30;9.95;;;2.50;99.90;;;;;;4872913;29;20067;-64
2024/01/06 11:54:27;;;;;;;14.43;10.48;;;2.40;99.90;;;;;;4857597;29;20060;-64
2024/01/06 11:56:55;;;;;;;15.82;10.05;;;2.50;99.90;;;;;;4857134;29;20422;-64
2024/01/06 11:59:22;;;;;;;14.25;9.00;;;2.50;99.90;;;;;;4856653;29;20110;-64
2024/01/06 12:01:48;;;;;;;14.10;10.20;;;2.50;99.90;;;;;;4872989;29;20050;-63
2024/01/06 12:04:15;;;;;;;16.80;9.90;;;2.50;99.90;;;;;;4857828;29;20061;-64
2024/01/06 12:06:41;;;;;;;14.52;10.43;;;2.50;99.90;;;;;;4858553;29;20072;-61
2024/01/06 12:09:14;;;;;;;15.10;10.50;;;2.50;99.90;;;;;;4872474;29;20367;-63
2024/01/06 12:11:41;;;;;;;15.63;10.63;;;2.50;99.90;;;;;;4856570;29;20069;-64
2024/01/06 12:14:07;;;;;;;16.83;10.05;;;2.60;99.90;;;;;;4874917;29;20053;-62
2024/01/06 12:16:34;;;;;;;13.57;10.27;;;2.50;99.90;;;;;;4863929;29;20358;-63
2024/01/06 12:19:02;;;;;;;13.02;9.27;;;2.60;99.90;;;;;;4878951;29;20064;-63
2024/01/06 12:21:28;;;;;;;14.05;9.90;;;2.50;99.90;;;;;;4878823;29;20064;-61
2024/01/06 12:24:11;;;;;;;14.18;9.73;;;2.60;99.90;;;;;;4879016;29;20461;-62
2024/01/06 12:26:40;;;;;;;14.50;10.63;;;2.60;99.90;;;;;;4879187;29;20048;-63
2024/01/06 12:29:09;;;;;;;14.60;9.20;;;2.60;99.90;;;;;;4862732;29;20092;-63
2024/01/06 12:31:35;;;;;;;12.85;10.13;;;2.60;99.90;;;;;;4846495;29;20050;-62
2024/01/06 12:34:01;;;;;;;11.77;8.93;;;2.60;99.90;;;;;;4852179;29;20061;-62
2024/01/06 12:36:28;;;;;;;15.70;10.50;;;2.60;99.90;;;;;;4853268;29;20084;-62
2024/01/06 12:38:56;;;;;;;17.70;11.85;;;2.50;99.90;;;;;;4859960;29;20061;-62